<?xml version="1.0" encoding="UTF-8"?>
<gpx version="1.1" creator="2bulu-scraper" xmlns="http://www.topografix.com/GPX/1/1">
  <metadata><name>内江隆昌市</name><desc>source: 2bulu.com trackId=83791705; exported 2026-09-01T18:01:09.370Z</desc>
    <bounds minlat="29.3501698" minlon="105.2821467" maxlat="29.3538969" maxlon="105.2885061"/>
    <link href="https://www.2bulu.com/track/t-2b8c7pe%252BPYzp%252FR2KBg5Tzw%253D%253D.htm"><text>2bulu 源页面</text></link>
  </metadata>
  <wpt lat="29.3517404" lon="105.2842904"><ele>361</ele><name>15-1
        </name></wpt>
  <wpt lat="29.3517404" lon="105.2842904"><ele>361</ele><name>15-2
        </name></wpt>
  <wpt lat="29.3517404" lon="105.2842904"><ele>361</ele><name>15-3
        </name></wpt>
  <wpt lat="29.3517249" lon="105.284372"><ele>356</ele><name>15-4排水
        </name></wpt>
  <wpt lat="29.3516997" lon="105.2844773"><ele>357</ele><name>15-5道路
        </name></wpt>
  <wpt lat="29.3516885" lon="105.2848201"><ele>356</ele><name>15-6绿化
        </name></wpt>
  <wpt lat="29.3516108" lon="105.2849048"><ele>355</ele><name>15-7健身
        </name></wpt>
  <wpt lat="29.3515376" lon="105.2849853"><ele>360</ele><name>15-8消防
        </name></wpt>
  <wpt lat="29.3514243" lon="105.2849491"><ele>363</ele><name>15-9道路
        </name></wpt>
  <wpt lat="29.35138" lon="105.2848507"><ele>359</ele><name>15-10非机动车
        </name></wpt>
  <wpt lat="29.3513809" lon="105.284734"><ele>353</ele><name>15-11安防
        </name></wpt>
  <wpt lat="29.3512717" lon="105.2847722"><ele>350</ele><name>15-12环境
        </name></wpt>
  <wpt lat="29.3511876" lon="105.2847688"><ele>353</ele><name>15-13道路
        </name></wpt>
  <wpt lat="29.3502534" lon="105.2832763"><ele>358</ele><name>
12-1道路
        </name></wpt>
  <wpt lat="29.3502987" lon="105.2828387"><ele>362</ele><name>12-2北街花园
        </name></wpt>
  <wpt lat="29.3505902" lon="105.2827865"><ele>368</ele><name>12-3
        </name></wpt>
  <wpt lat="29.3505674" lon="105.2826057"><ele>358</ele><name>12-4非机动车
        </name></wpt>
  <wpt lat="29.3505674" lon="105.2826057"><ele>358</ele><name>12-5道路
        </name></wpt>
  <wpt lat="29.3505824" lon="105.282432"><ele>343</ele><name>12-6消防
        </name></wpt>
  <wpt lat="29.3508149" lon="105.28283"><ele>359</ele><name>12-8
        </name></wpt>
  <wpt lat="29.3510106" lon="105.2821938"><ele>353</ele><name>12-10
        </name></wpt>
  <wpt lat="29.351046" lon="105.2821806"><ele>352</ele><name>12-11
        </name></wpt>
  <wpt lat="29.3538393" lon="105.2856053"><ele>344</ele><name>15-15
        </name></wpt>
  <wpt lat="29.3538647" lon="105.2853727"><ele>348</ele><name>15.16
        </name></wpt>
  <wpt lat="29.3529558" lon="105.2863138"><ele>350</ele><name>15-13
        </name></wpt>
  <wpt lat="29.3531269" lon="105.2861571"><ele>346</ele><name>15-14
        </name></wpt>
  <wpt lat="29.3531567" lon="105.2860954"><ele>340</ele><name>15-15
        </name></wpt>
  <wpt lat="29.3533977" lon="105.2858247"><ele>340</ele><name>15-16
        </name></wpt>
  <wpt lat="29.353415" lon="105.28574"><ele>348</ele><name>15-17
        </name></wpt>
  <wpt lat="29.3533694" lon="105.2856457"><ele>349</ele><name>15-18没法停车
        </name></wpt>
  <wpt lat="29.3533776" lon="105.2855663"><ele>350</ele><name>15-19
        </name></wpt>
  <wpt lat="29.353437" lon="105.2854773"><ele>345</ele><name>15-20
        </name></wpt>
  <wpt lat="29.3534036" lon="105.2855109"><ele>343</ele><name>15-21飞线
        </name></wpt>
  <wpt lat="29.3533565" lon="105.2854633"><ele>346</ele><name>15-23排水
        </name></wpt>
  <wpt lat="29.3533907" lon="105.28583"><ele>344</ele><name>15-20
        </name></wpt>
  <trk><name>内江隆昌市</name>
      <trkseg>
        <trkpt lat="29.3517404" lon="105.2842904"><ele>361.01</ele><time>2026-05-06T00:10:34.000Z</time></trkpt>
        <trkpt lat="29.3517249" lon="105.284372"><ele>361.01</ele><time>2026-05-06T00:11:12.000Z</time></trkpt>
        <trkpt lat="29.3516997" lon="105.2844773"><ele>358.8</ele><time>2026-05-06T00:11:24.000Z</time></trkpt>
        <trkpt lat="29.3517221" lon="105.2845927"><ele>357.91</ele><time>2026-05-06T00:11:40.000Z</time></trkpt>
        <trkpt lat="29.3517173" lon="105.2847048"><ele>357.31</ele><time>2026-05-06T00:11:50.000Z</time></trkpt>
        <trkpt lat="29.3516885" lon="105.2848201"><ele>356.22</ele><time>2026-05-06T00:12:00.000Z</time></trkpt>
        <trkpt lat="29.3516108" lon="105.2849048"><ele>356.09</ele><time>2026-05-06T00:12:14.000Z</time></trkpt>
        <trkpt lat="29.3515376" lon="105.2849853"><ele>355.56</ele><time>2026-05-06T00:12:32.000Z</time></trkpt>
        <trkpt lat="29.3514737" lon="105.28507"><ele>357.58</ele><time>2026-05-06T00:12:44.000Z</time></trkpt>
        <trkpt lat="29.3514374" lon="105.2850098"><ele>360.72</ele><time>2026-05-06T00:12:50.000Z</time></trkpt>
        <trkpt lat="29.3514243" lon="105.2849491"><ele>361.92</ele><time>2026-05-06T00:12:54.000Z</time></trkpt>
        <trkpt lat="29.35138" lon="105.2848507"><ele>362.54</ele><time>2026-05-06T00:13:08.000Z</time></trkpt>
        <trkpt lat="29.3513809" lon="105.284734"><ele>360.81</ele><time>2026-05-06T00:13:18.000Z</time></trkpt>
        <trkpt lat="29.3513923" lon="105.2846111"><ele>357.49</ele><time>2026-05-06T00:13:30.000Z</time></trkpt>
        <trkpt lat="29.3513882" lon="105.2844929"><ele>355.19</ele><time>2026-05-06T00:13:48.000Z</time></trkpt>
        <trkpt lat="29.3514132" lon="105.2845438"><ele>354.45</ele><time>2026-05-06T00:14:02.000Z</time></trkpt>
        <trkpt lat="29.3514272" lon="105.2846545"><ele>351.89</ele><time>2026-05-06T00:14:12.000Z</time></trkpt>
        <trkpt lat="29.3513748" lon="105.284758"><ele>349.83</ele><time>2026-05-06T00:14:30.000Z</time></trkpt>
        <trkpt lat="29.3512717" lon="105.2847722"><ele>349.93</ele><time>2026-05-06T00:14:40.000Z</time></trkpt>
        <trkpt lat="29.3511876" lon="105.2847688"><ele>349.93</ele><time>2026-05-06T00:14:48.000Z</time></trkpt>
        <trkpt lat="29.3511465" lon="105.2846754"><ele>351.13</ele><time>2026-05-06T00:15:06.000Z</time></trkpt>
        <trkpt lat="29.3511741" lon="105.2847103"><ele>352.01</ele><time>2026-05-06T00:15:16.000Z</time></trkpt>
        <trkpt lat="29.3512612" lon="105.2847597"><ele>352.2</ele><time>2026-05-06T00:15:26.000Z</time></trkpt>
        <trkpt lat="29.3513669" lon="105.2848144"><ele>353.04</ele><time>2026-05-06T00:15:36.000Z</time></trkpt>
        <trkpt lat="29.3514728" lon="105.2848588"><ele>353.42</ele><time>2026-05-06T00:15:46.000Z</time></trkpt>
        <trkpt lat="29.3515681" lon="105.284848"><ele>353.99</ele><time>2026-05-06T00:15:58.000Z</time></trkpt>
        <trkpt lat="29.35162" lon="105.2849251"><ele>355.11</ele><time>2026-05-06T00:16:26.000Z</time></trkpt>
        <trkpt lat="29.3516321" lon="105.2848091"><ele>354.25</ele><time>2026-05-06T00:17:20.000Z</time></trkpt>
        <trkpt lat="29.3516362" lon="105.2846843"><ele>355.48</ele><time>2026-05-06T00:17:22.000Z</time></trkpt>
        <trkpt lat="29.3516485" lon="105.2844996"><ele>356.66</ele><time>2026-05-06T00:17:26.000Z</time></trkpt>
        <trkpt lat="29.3516636" lon="105.2843531"><ele>356.99</ele><time>2026-05-06T00:17:30.000Z</time></trkpt>
        <trkpt lat="29.3516735" lon="105.2842189"><ele>356.73</ele><time>2026-05-06T00:17:36.000Z</time></trkpt>
        <trkpt lat="29.351606" lon="105.2841342"><ele>356.49</ele><time>2026-05-06T00:17:48.000Z</time></trkpt>
        <trkpt lat="29.3514546" lon="105.2840986"><ele>355.29</ele><time>2026-05-06T00:17:54.000Z</time></trkpt>
        <trkpt lat="29.3513295" lon="105.2840829"><ele>354.6</ele><time>2026-05-06T00:17:56.000Z</time></trkpt>
        <trkpt lat="29.3512209" lon="105.2840681"><ele>354.18</ele><time>2026-05-06T00:17:58.000Z</time></trkpt>
        <trkpt lat="29.3511184" lon="105.2840468"><ele>354.08</ele><time>2026-05-06T00:18:00.000Z</time></trkpt>
        <trkpt lat="29.3510153" lon="105.2840309"><ele>353.84</ele><time>2026-05-06T00:18:02.000Z</time></trkpt>
        <trkpt lat="29.3509125" lon="105.2840146"><ele>353.68</ele><time>2026-05-06T00:18:04.000Z</time></trkpt>
        <trkpt lat="29.350815" lon="105.2839974"><ele>353.53</ele><time>2026-05-06T00:18:06.000Z</time></trkpt>
        <trkpt lat="29.3506834" lon="105.2839569"><ele>353.45</ele><time>2026-05-06T00:18:10.000Z</time></trkpt>
        <trkpt lat="29.3505557" lon="105.2838693"><ele>353.69</ele><time>2026-05-06T00:18:14.000Z</time></trkpt>
        <trkpt lat="29.3504795" lon="105.2837761"><ele>354.39</ele><time>2026-05-06T00:18:16.000Z</time></trkpt>
        <trkpt lat="29.3504227" lon="105.2836744"><ele>355.11</ele><time>2026-05-06T00:18:18.000Z</time></trkpt>
        <trkpt lat="29.3503679" lon="105.2835718"><ele>355.7</ele><time>2026-05-06T00:18:20.000Z</time></trkpt>
        <trkpt lat="29.3503183" lon="105.2834746"><ele>356.33</ele><time>2026-05-06T00:18:22.000Z</time></trkpt>
        <trkpt lat="29.350277" lon="105.2833792"><ele>356.94</ele><time>2026-05-06T00:18:24.000Z</time></trkpt>
        <trkpt lat="29.3502534" lon="105.2832763"><ele>357.35</ele><time>2026-05-06T00:18:26.000Z</time></trkpt>
        <trkpt lat="29.3502665" lon="105.2830942"><ele>357.66</ele><time>2026-05-06T00:18:30.000Z</time></trkpt>
        <trkpt lat="29.3502824" lon="105.282958"><ele>358.15</ele><time>2026-05-06T00:18:32.000Z</time></trkpt>
        <trkpt lat="29.3502987" lon="105.2828387"><ele>358.8</ele><time>2026-05-06T00:18:38.000Z</time></trkpt>
        <trkpt lat="29.350378" lon="105.2828034"><ele>360.25</ele><time>2026-05-06T00:18:56.000Z</time></trkpt>
        <trkpt lat="29.3504735" lon="105.2828024"><ele>360.79</ele><time>2026-05-06T00:19:06.000Z</time></trkpt>
        <trkpt lat="29.3505191" lon="105.2828178"><ele>360.84</ele><time>2026-05-06T00:19:16.000Z</time></trkpt>
        <trkpt lat="29.3505902" lon="105.2827865"><ele>361.6</ele><time>2026-05-06T00:20:12.000Z</time></trkpt>
        <trkpt lat="29.3506135" lon="105.2826956"><ele>364.28</ele><time>2026-05-06T00:20:26.000Z</time></trkpt>
        <trkpt lat="29.3505674" lon="105.2826057"><ele>363.3</ele><time>2026-05-06T00:20:36.000Z</time></trkpt>
        <trkpt lat="29.3505567" lon="105.2824947"><ele>361.2</ele><time>2026-05-06T00:20:52.000Z</time></trkpt>
        <trkpt lat="29.3505633" lon="105.2823702"><ele>357.25</ele><time>2026-05-06T00:21:02.000Z</time></trkpt>
        <trkpt lat="29.3505932" lon="105.2824112"><ele>351.67</ele><time>2026-05-06T00:21:14.000Z</time></trkpt>
        <trkpt lat="29.3505824" lon="105.282432"><ele>347.87</ele><time>2026-05-06T00:21:18.000Z</time></trkpt>
        <trkpt lat="29.3505654" lon="105.2825336"><ele>345.89</ele><time>2026-05-06T00:21:46.000Z</time></trkpt>
        <trkpt lat="29.3506064" lon="105.2826374"><ele>346.59</ele><time>2026-05-06T00:22:00.000Z</time></trkpt>
        <trkpt lat="29.3506317" lon="105.2827505"><ele>349.99</ele><time>2026-05-06T00:22:14.000Z</time></trkpt>
        <trkpt lat="29.350715" lon="105.2828251"><ele>353.61</ele><time>2026-05-06T00:22:50.000Z</time></trkpt>
        <trkpt lat="29.3508149" lon="105.28283"><ele>354.74</ele><time>2026-05-06T00:23:00.000Z</time></trkpt>
        <trkpt lat="29.350865" lon="105.282739"><ele>356.42</ele><time>2026-05-06T00:23:14.000Z</time></trkpt>
        <trkpt lat="29.350867" lon="105.2826089"><ele>357.22</ele><time>2026-05-06T00:23:24.000Z</time></trkpt>
        <trkpt lat="29.3508592" lon="105.2824849"><ele>357.74</ele><time>2026-05-06T00:23:34.000Z</time></trkpt>
        <trkpt lat="29.3508654" lon="105.2823573"><ele>356.27</ele><time>2026-05-06T00:23:44.000Z</time></trkpt>
        <trkpt lat="29.3509365" lon="105.2822694"><ele>353.58</ele><time>2026-05-06T00:23:54.000Z</time></trkpt>
        <trkpt lat="29.3510106" lon="105.2821938"><ele>352.7</ele><time>2026-05-06T00:24:02.000Z</time></trkpt>
        <trkpt lat="29.351046" lon="105.2821806"><ele>352.64</ele><time>2026-05-06T00:24:06.000Z</time></trkpt>
        <trkpt lat="29.3509795" lon="105.2821631"><ele>352.24</ele><time>2026-05-06T00:24:26.000Z</time></trkpt>
        <trkpt lat="29.3508794" lon="105.2821467"><ele>353.89</ele><time>2026-05-06T00:24:34.000Z</time></trkpt>
        <trkpt lat="29.3507718" lon="105.282162"><ele>355.08</ele><time>2026-05-06T00:24:42.000Z</time></trkpt>
        <trkpt lat="29.3506796" lon="105.2822137"><ele>357.25</ele><time>2026-05-06T00:24:48.000Z</time></trkpt>
        <trkpt lat="29.3506537" lon="105.2822283"><ele>355.69</ele><time>2026-05-06T00:24:50.000Z</time></trkpt>
        <trkpt lat="29.3506168" lon="105.282314"><ele>354.09</ele><time>2026-05-06T00:25:06.000Z</time></trkpt>
        <trkpt lat="29.350595" lon="105.2824605"><ele>350.89</ele><time>2026-05-06T00:25:10.000Z</time></trkpt>
        <trkpt lat="29.3505845" lon="105.2826321"><ele>347.56</ele><time>2026-05-06T00:25:14.000Z</time></trkpt>
        <trkpt lat="29.3505633" lon="105.2827915"><ele>345.99</ele><time>2026-05-06T00:25:18.000Z</time></trkpt>
        <trkpt lat="29.3505066" lon="105.282888"><ele>345.89</ele><time>2026-05-06T00:25:26.000Z</time></trkpt>
        <trkpt lat="29.3504198" lon="105.2828892"><ele>346.88</ele><time>2026-05-06T00:25:42.000Z</time></trkpt>
        <trkpt lat="29.3503197" lon="105.2828795"><ele>349.19</ele><time>2026-05-06T00:26:04.000Z</time></trkpt>
        <trkpt lat="29.3502978" lon="105.2829694"><ele>356.22</ele><time>2026-05-06T00:26:10.000Z</time></trkpt>
        <trkpt lat="29.3502766" lon="105.2830944"><ele>363.04</ele><time>2026-05-06T00:26:14.000Z</time></trkpt>
        <trkpt lat="29.3502722" lon="105.2832142"><ele>365.91</ele><time>2026-05-06T00:26:16.000Z</time></trkpt>
        <trkpt lat="29.3502992" lon="105.2833579"><ele>367.41</ele><time>2026-05-06T00:26:20.000Z</time></trkpt>
        <trkpt lat="29.3503111" lon="105.2834053"><ele>367.2</ele><time>2026-05-06T00:26:22.000Z</time></trkpt>
        <trkpt lat="29.3503545" lon="105.2835311"><ele>366.49</ele><time>2026-05-06T00:26:34.000Z</time></trkpt>
        <trkpt lat="29.3503512" lon="105.2836478"><ele>364.93</ele><time>2026-05-06T00:26:38.000Z</time></trkpt>
        <trkpt lat="29.3503045" lon="105.2837801"><ele>363.76</ele><time>2026-05-06T00:26:42.000Z</time></trkpt>
        <trkpt lat="29.3502731" lon="105.2839504"><ele>362.77</ele><time>2026-05-06T00:26:46.000Z</time></trkpt>
        <trkpt lat="29.3502612" lon="105.2841067"><ele>361.56</ele><time>2026-05-06T00:26:50.000Z</time></trkpt>
        <trkpt lat="29.3502958" lon="105.2842473"><ele>360.68</ele><time>2026-05-06T00:26:54.000Z</time></trkpt>
        <trkpt lat="29.3502467" lon="105.2843851"><ele>359.67</ele><time>2026-05-06T00:27:00.000Z</time></trkpt>
        <trkpt lat="29.3501933" lon="105.2845349"><ele>358.27</ele><time>2026-05-06T00:27:04.000Z</time></trkpt>
        <trkpt lat="29.3501741" lon="105.2847023"><ele>357.55</ele><time>2026-05-06T00:27:08.000Z</time></trkpt>
        <trkpt lat="29.3501698" lon="105.2848517"><ele>355.99</ele><time>2026-05-06T00:27:12.000Z</time></trkpt>
        <trkpt lat="29.3501864" lon="105.2850496"><ele>355.55</ele><time>2026-05-06T00:27:16.000Z</time></trkpt>
        <trkpt lat="29.3501934" lon="105.2851912"><ele>355.35</ele><time>2026-05-06T00:27:18.000Z</time></trkpt>
        <trkpt lat="29.3502007" lon="105.2853174"><ele>355.27</ele><time>2026-05-06T00:27:20.000Z</time></trkpt>
        <trkpt lat="29.3501952" lon="105.2854366"><ele>354.89</ele><time>2026-05-06T00:27:22.000Z</time></trkpt>
        <trkpt lat="29.350197" lon="105.2855439"><ele>354.68</ele><time>2026-05-06T00:27:24.000Z</time></trkpt>
        <trkpt lat="29.3501964" lon="105.2856475"><ele>354.21</ele><time>2026-05-06T00:27:26.000Z</time></trkpt>
        <trkpt lat="29.350184" lon="105.2858212"><ele>354.02</ele><time>2026-05-06T00:27:30.000Z</time></trkpt>
        <trkpt lat="29.350191" lon="105.2859565"><ele>353.48</ele><time>2026-05-06T00:27:32.000Z</time></trkpt>
        <trkpt lat="29.3502019" lon="105.2860754"><ele>353.1</ele><time>2026-05-06T00:27:34.000Z</time></trkpt>
        <trkpt lat="29.3502061" lon="105.2861892"><ele>352.26</ele><time>2026-05-06T00:27:36.000Z</time></trkpt>
        <trkpt lat="29.3502052" lon="105.2863101"><ele>351.64</ele><time>2026-05-06T00:27:38.000Z</time></trkpt>
        <trkpt lat="29.350206" lon="105.2864291"><ele>350.8</ele><time>2026-05-06T00:27:40.000Z</time></trkpt>
        <trkpt lat="29.3502124" lon="105.2865449"><ele>350.74</ele><time>2026-05-06T00:27:42.000Z</time></trkpt>
        <trkpt lat="29.3502182" lon="105.2866631"><ele>350.28</ele><time>2026-05-06T00:27:44.000Z</time></trkpt>
        <trkpt lat="29.3502236" lon="105.2867707"><ele>349.67</ele><time>2026-05-06T00:27:46.000Z</time></trkpt>
        <trkpt lat="29.3502327" lon="105.2869013"><ele>349</ele><time>2026-05-06T00:27:50.000Z</time></trkpt>
        <trkpt lat="29.3502385" lon="105.2870184"><ele>347.88</ele><time>2026-05-06T00:27:54.000Z</time></trkpt>
        <trkpt lat="29.3502409" lon="105.2871537"><ele>347.18</ele><time>2026-05-06T00:28:00.000Z</time></trkpt>
        <trkpt lat="29.3502506" lon="105.2872731"><ele>346.09</ele><time>2026-05-06T00:28:02.000Z</time></trkpt>
        <trkpt lat="29.3502611" lon="105.2874388"><ele>346.1</ele><time>2026-05-06T00:28:06.000Z</time></trkpt>
        <trkpt lat="29.350269" lon="105.2876429"><ele>345.72</ele><time>2026-05-06T00:28:10.000Z</time></trkpt>
        <trkpt lat="29.3502808" lon="105.2877884"><ele>345.1</ele><time>2026-05-06T00:28:12.000Z</time></trkpt>
        <trkpt lat="29.3502867" lon="105.2879045"><ele>344.3</ele><time>2026-05-06T00:28:14.000Z</time></trkpt>
        <trkpt lat="29.3502931" lon="105.2880122"><ele>343.94</ele><time>2026-05-06T00:28:16.000Z</time></trkpt>
        <trkpt lat="29.3503026" lon="105.2881223"><ele>343.49</ele><time>2026-05-06T00:28:18.000Z</time></trkpt>
        <trkpt lat="29.3503191" lon="105.2882297"><ele>342.8</ele><time>2026-05-06T00:28:20.000Z</time></trkpt>
        <trkpt lat="29.3503319" lon="105.2883628"><ele>342.43</ele><time>2026-05-06T00:28:24.000Z</time></trkpt>
        <trkpt lat="29.350401" lon="105.2884674"><ele>340.93</ele><time>2026-05-06T00:28:30.000Z</time></trkpt>
        <trkpt lat="29.3504949" lon="105.2885061"><ele>338.81</ele><time>2026-05-06T00:28:34.000Z</time></trkpt>
        <trkpt lat="29.3506253" lon="105.2884549"><ele>337.92</ele><time>2026-05-06T00:28:38.000Z</time></trkpt>
        <trkpt lat="29.3507598" lon="105.2883586"><ele>337.99</ele><time>2026-05-06T00:28:42.000Z</time></trkpt>
        <trkpt lat="29.3508848" lon="105.2882535"><ele>338.66</ele><time>2026-05-06T00:28:46.000Z</time></trkpt>
        <trkpt lat="29.3510127" lon="105.2881532"><ele>339.67</ele><time>2026-05-06T00:28:50.000Z</time></trkpt>
        <trkpt lat="29.3510959" lon="105.2881263"><ele>340.76</ele><time>2026-05-06T00:29:00.000Z</time></trkpt>
        <trkpt lat="29.3511733" lon="105.2880725"><ele>341.86</ele><time>2026-05-06T00:29:42.000Z</time></trkpt>
        <trkpt lat="29.3512988" lon="105.2879958"><ele>344.25</ele><time>2026-05-06T00:29:46.000Z</time></trkpt>
        <trkpt lat="29.3513961" lon="105.2879421"><ele>345.78</ele><time>2026-05-06T00:29:48.000Z</time></trkpt>
        <trkpt lat="29.3515422" lon="105.2878647"><ele>346.87</ele><time>2026-05-06T00:29:52.000Z</time></trkpt>
        <trkpt lat="29.3516472" lon="105.2878017"><ele>347.7</ele><time>2026-05-06T00:29:54.000Z</time></trkpt>
        <trkpt lat="29.3517884" lon="105.2877009"><ele>346.96</ele><time>2026-05-06T00:29:58.000Z</time></trkpt>
        <trkpt lat="29.3518894" lon="105.2876253"><ele>346.6</ele><time>2026-05-06T00:30:00.000Z</time></trkpt>
        <trkpt lat="29.3519813" lon="105.2875569"><ele>346.41</ele><time>2026-05-06T00:30:02.000Z</time></trkpt>
        <trkpt lat="29.3520679" lon="105.2874898"><ele>346.36</ele><time>2026-05-06T00:30:04.000Z</time></trkpt>
        <trkpt lat="29.3521523" lon="105.2874167"><ele>346.21</ele><time>2026-05-06T00:30:06.000Z</time></trkpt>
        <trkpt lat="29.3522365" lon="105.2873476"><ele>345.64</ele><time>2026-05-06T00:30:08.000Z</time></trkpt>
        <trkpt lat="29.3523209" lon="105.2872776"><ele>345.39</ele><time>2026-05-06T00:30:10.000Z</time></trkpt>
        <trkpt lat="29.3524012" lon="105.2872052"><ele>344.89</ele><time>2026-05-06T00:30:12.000Z</time></trkpt>
        <trkpt lat="29.3525077" lon="105.2870953"><ele>344.52</ele><time>2026-05-06T00:30:16.000Z</time></trkpt>
        <trkpt lat="29.3526083" lon="105.2870371"><ele>344.28</ele><time>2026-05-06T00:30:24.000Z</time></trkpt>
        <trkpt lat="29.3526525" lon="105.2870146"><ele>343.64</ele><time>2026-05-06T00:30:30.000Z</time></trkpt>
        <trkpt lat="29.352749" lon="105.2869355"><ele>343.12</ele><time>2026-05-06T00:31:08.000Z</time></trkpt>
        <trkpt lat="29.3528271" lon="105.2868509"><ele>342.43</ele><time>2026-05-06T00:31:10.000Z</time></trkpt>
        <trkpt lat="29.3528965" lon="105.2867608"><ele>342.07</ele><time>2026-05-06T00:31:12.000Z</time></trkpt>
        <trkpt lat="29.3529656" lon="105.2866708"><ele>341.99</ele><time>2026-05-06T00:31:14.000Z</time></trkpt>
        <trkpt lat="29.3530423" lon="105.2865846"><ele>342.11</ele><time>2026-05-06T00:31:16.000Z</time></trkpt>
        <trkpt lat="29.3531201" lon="105.2864963"><ele>342.23</ele><time>2026-05-06T00:31:18.000Z</time></trkpt>
        <trkpt lat="29.3531939" lon="105.286405"><ele>342.38</ele><time>2026-05-06T00:31:20.000Z</time></trkpt>
        <trkpt lat="29.3532647" lon="105.2863163"><ele>342.54</ele><time>2026-05-06T00:31:22.000Z</time></trkpt>
        <trkpt lat="29.3533343" lon="105.2862314"><ele>342.6</ele><time>2026-05-06T00:31:24.000Z</time></trkpt>
        <trkpt lat="29.3534075" lon="105.2861496"><ele>342.69</ele><time>2026-05-06T00:31:26.000Z</time></trkpt>
        <trkpt lat="29.3534814" lon="105.2860659"><ele>342.81</ele><time>2026-05-06T00:31:28.000Z</time></trkpt>
        <trkpt lat="29.3535512" lon="105.285978"><ele>342.73</ele><time>2026-05-06T00:31:30.000Z</time></trkpt>
        <trkpt lat="29.3536174" lon="105.2858882"><ele>342.35</ele><time>2026-05-06T00:31:32.000Z</time></trkpt>
        <trkpt lat="29.3536772" lon="105.2858053"><ele>342.11</ele><time>2026-05-06T00:31:34.000Z</time></trkpt>
        <trkpt lat="29.3537624" lon="105.2857035"><ele>341.99</ele><time>2026-05-06T00:31:38.000Z</time></trkpt>
        <trkpt lat="29.3538393" lon="105.2856053"><ele>342.56</ele><time>2026-05-06T00:31:42.000Z</time></trkpt>
        <trkpt lat="29.3538953" lon="105.2855441"><ele>343.36</ele><time>2026-05-06T00:31:50.000Z</time></trkpt>
        <trkpt lat="29.3538969" lon="105.2854307"><ele>344.94</ele><time>2026-05-06T00:32:04.000Z</time></trkpt>
        <trkpt lat="29.3538647" lon="105.2853727"><ele>346.36</ele><time>2026-05-06T00:32:10.000Z</time></trkpt>
        <trkpt lat="29.3538106" lon="105.2854398"><ele>347.19</ele><time>2026-05-06T00:32:38.000Z</time></trkpt>
        <trkpt lat="29.3537425" lon="105.2855419"><ele>347.29</ele><time>2026-05-06T00:32:50.000Z</time></trkpt>
        <trkpt lat="29.3536743" lon="105.2856408"><ele>347.29</ele><time>2026-05-06T00:33:00.000Z</time></trkpt>
        <trkpt lat="29.3536126" lon="105.2857387"><ele>347.47</ele><time>2026-05-06T00:33:10.000Z</time></trkpt>
        <trkpt lat="29.3535286" lon="105.2858148"><ele>347.4</ele><time>2026-05-06T00:33:26.000Z</time></trkpt>
        <trkpt lat="29.3534215" lon="105.2859285"><ele>345.97</ele><time>2026-05-06T00:33:30.000Z</time></trkpt>
        <trkpt lat="29.3532994" lon="105.2860697"><ele>345.14</ele><time>2026-05-06T00:33:34.000Z</time></trkpt>
        <trkpt lat="29.3531841" lon="105.2862199"><ele>344.54</ele><time>2026-05-06T00:33:38.000Z</time></trkpt>
        <trkpt lat="29.3530747" lon="105.2863459"><ele>343.98</ele><time>2026-05-06T00:33:42.000Z</time></trkpt>
        <trkpt lat="29.3530047" lon="105.2864417"><ele>343.68</ele><time>2026-05-06T00:33:46.000Z</time></trkpt>
        <trkpt lat="29.3529387" lon="105.2865192"><ele>343.21</ele><time>2026-05-06T00:33:54.000Z</time></trkpt>
        <trkpt lat="29.3528619" lon="105.2864933"><ele>343.52</ele><time>2026-05-06T00:34:10.000Z</time></trkpt>
        <trkpt lat="29.3527715" lon="105.2864587"><ele>345.71</ele><time>2026-05-06T00:34:24.000Z</time></trkpt>
        <trkpt lat="29.3527005" lon="105.2864745"><ele>346.16</ele><time>2026-05-06T00:34:34.000Z</time></trkpt>
        <trkpt lat="29.3527338" lon="105.2865544"><ele>345.87</ele><time>2026-05-06T00:34:44.000Z</time></trkpt>
        <trkpt lat="29.3527782" lon="105.2866636"><ele>346.65</ele><time>2026-05-06T00:34:54.000Z</time></trkpt>
        <trkpt lat="29.3528475" lon="105.2866312"><ele>348.35</ele><time>2026-05-06T00:35:08.000Z</time></trkpt>
        <trkpt lat="29.3529265" lon="105.2865365"><ele>350.27</ele><time>2026-05-06T00:35:18.000Z</time></trkpt>
        <trkpt lat="29.3529999" lon="105.2864402"><ele>351.99</ele><time>2026-05-06T00:35:28.000Z</time></trkpt>
        <trkpt lat="29.3530732" lon="105.2863492"><ele>353.71</ele><time>2026-05-06T00:35:38.000Z</time></trkpt>
        <trkpt lat="29.3531515" lon="105.2862588"><ele>354.17</ele><time>2026-05-06T00:35:48.000Z</time></trkpt>
        <trkpt lat="29.353221" lon="105.2861758"><ele>349.63</ele><time>2026-05-06T00:35:56.000Z</time></trkpt>
        <trkpt lat="29.353284" lon="105.2860938"><ele>347.76</ele><time>2026-05-06T00:36:04.000Z</time></trkpt>
        <trkpt lat="29.3533465" lon="105.2859957"><ele>346.76</ele><time>2026-05-06T00:36:14.000Z</time></trkpt>
        <trkpt lat="29.353407" lon="105.2859033"><ele>345.12</ele><time>2026-05-06T00:36:22.000Z</time></trkpt>
        <trkpt lat="29.353475" lon="105.2858312"><ele>343.78</ele><time>2026-05-06T00:36:30.000Z</time></trkpt>
        <trkpt lat="29.3535606" lon="105.2857538"><ele>341.78</ele><time>2026-05-06T00:36:40.000Z</time></trkpt>
        <trkpt lat="29.3536392" lon="105.2856644"><ele>340.55</ele><time>2026-05-06T00:36:50.000Z</time></trkpt>
        <trkpt lat="29.3536965" lon="105.2855713"><ele>339.47</ele><time>2026-05-06T00:36:59.000Z</time></trkpt>
        <trkpt lat="29.3537574" lon="105.285475"><ele>338.92</ele><time>2026-05-06T00:37:09.000Z</time></trkpt>
        <trkpt lat="29.3538073" lon="105.2853757"><ele>338.44</ele><time>2026-05-06T00:37:19.000Z</time></trkpt>
        <trkpt lat="29.3537756" lon="105.2852876"><ele>338.45</ele><time>2026-05-06T00:37:31.000Z</time></trkpt>
        <trkpt lat="29.3536926" lon="105.2852184"><ele>341.34</ele><time>2026-05-06T00:37:45.000Z</time></trkpt>
        <trkpt lat="29.3535983" lon="105.2851538"><ele>343.6</ele><time>2026-05-06T00:37:55.000Z</time></trkpt>
        <trkpt lat="29.3535001" lon="105.2850976"><ele>344.73</ele><time>2026-05-06T00:38:05.000Z</time></trkpt>
        <trkpt lat="29.3534087" lon="105.2850286"><ele>345.52</ele><time>2026-05-06T00:38:13.000Z</time></trkpt>
        <trkpt lat="29.3534458" lon="105.2850563"><ele>346.51</ele><time>2026-05-06T00:38:29.000Z</time></trkpt>
        <trkpt lat="29.3535225" lon="105.2851238"><ele>347.12</ele><time>2026-05-06T00:38:37.000Z</time></trkpt>
        <trkpt lat="29.3536101" lon="105.2852076"><ele>346.63</ele><time>2026-05-06T00:38:47.000Z</time></trkpt>
        <trkpt lat="29.353693" lon="105.2853018"><ele>345.85</ele><time>2026-05-06T00:38:57.000Z</time></trkpt>
        <trkpt lat="29.3537773" lon="105.2853741"><ele>344.3</ele><time>2026-05-06T00:39:05.000Z</time></trkpt>
        <trkpt lat="29.3538547" lon="105.285455"><ele>344.61</ele><time>2026-05-06T00:39:15.000Z</time></trkpt>
        <trkpt lat="29.3538501" lon="105.2854948"><ele>345.04</ele><time>2026-05-06T00:39:21.000Z</time></trkpt>
        <trkpt lat="29.3538141" lon="105.2854212"><ele>346.45</ele><time>2026-05-06T00:40:03.000Z</time></trkpt>
        <trkpt lat="29.3538307" lon="105.2854104"><ele>347.78</ele><time>2026-05-06T00:40:09.000Z</time></trkpt>
        <trkpt lat="29.3538178" lon="105.2855028"><ele>347.86</ele><time>2026-05-06T00:40:19.000Z</time></trkpt>
        <trkpt lat="29.3537608" lon="105.2856037"><ele>347.58</ele><time>2026-05-06T00:40:21.000Z</time></trkpt>
        <trkpt lat="29.3536832" lon="105.2857109"><ele>347.87</ele><time>2026-05-06T00:40:23.000Z</time></trkpt>
        <trkpt lat="29.3536073" lon="105.2858137"><ele>348.94</ele><time>2026-05-06T00:40:25.000Z</time></trkpt>
        <trkpt lat="29.3535381" lon="105.2859012"><ele>349.65</ele><time>2026-05-06T00:40:27.000Z</time></trkpt>
        <trkpt lat="29.3534639" lon="105.2859903"><ele>349.89</ele><time>2026-05-06T00:40:29.000Z</time></trkpt>
        <trkpt lat="29.3533849" lon="105.2860778"><ele>350.17</ele><time>2026-05-06T00:40:31.000Z</time></trkpt>
        <trkpt lat="29.3533048" lon="105.2861637"><ele>350.12</ele><time>2026-05-06T00:40:33.000Z</time></trkpt>
        <trkpt lat="29.3532233" lon="105.2862517"><ele>349.38</ele><time>2026-05-06T00:40:35.000Z</time></trkpt>
        <trkpt lat="29.3531459" lon="105.2863384"><ele>348.9</ele><time>2026-05-06T00:40:37.000Z</time></trkpt>
        <trkpt lat="29.3530693" lon="105.286418"><ele>348.58</ele><time>2026-05-06T00:40:39.000Z</time></trkpt>
        <trkpt lat="29.3529713" lon="105.2865088"><ele>348.41</ele><time>2026-05-06T00:40:43.000Z</time></trkpt>
        <trkpt lat="29.3528872" lon="105.2864979"><ele>348.27</ele><time>2026-05-06T00:40:55.000Z</time></trkpt>
        <trkpt lat="29.3527955" lon="105.2864516"><ele>348.73</ele><time>2026-05-06T00:41:07.000Z</time></trkpt>
        <trkpt lat="29.3528575" lon="105.2863813"><ele>349.42</ele><time>2026-05-06T00:41:33.000Z</time></trkpt>
        <trkpt lat="29.3529558" lon="105.2863138"><ele>351.52</ele><time>2026-05-06T00:41:59.000Z</time></trkpt>
        <trkpt lat="29.3530379" lon="105.2862223"><ele>350.73</ele><time>2026-05-06T00:42:09.000Z</time></trkpt>
        <trkpt lat="29.3531269" lon="105.2861571"><ele>349.45</ele><time>2026-05-06T00:42:17.000Z</time></trkpt>
        <trkpt lat="29.3531567" lon="105.2860954"><ele>347.85</ele><time>2026-05-06T00:42:27.000Z</time></trkpt>
        <trkpt lat="29.3532228" lon="105.2860258"><ele>344.29</ele><time>2026-05-06T00:42:45.000Z</time></trkpt>
        <trkpt lat="29.3532674" lon="105.285933"><ele>344.12</ele><time>2026-05-06T00:42:53.000Z</time></trkpt>
        <trkpt lat="29.3533453" lon="105.2858443"><ele>344.39</ele><time>2026-05-06T00:43:01.000Z</time></trkpt>
        <trkpt lat="29.3533977" lon="105.2858247"><ele>344.65</ele><time>2026-05-06T00:43:07.000Z</time></trkpt>
        <trkpt lat="29.353415" lon="105.28574"><ele>342.61</ele><time>2026-05-06T00:43:21.000Z</time></trkpt>
        <trkpt lat="29.3533694" lon="105.2856457"><ele>344.82</ele><time>2026-05-06T00:43:31.000Z</time></trkpt>
        <trkpt lat="29.3533776" lon="105.2855663"><ele>346.41</ele><time>2026-05-06T00:43:39.000Z</time></trkpt>
        <trkpt lat="29.353437" lon="105.2854773"><ele>347.75</ele><time>2026-05-06T00:44:07.000Z</time></trkpt>
        <trkpt lat="29.3534036" lon="105.2855109"><ele>346.36</ele><time>2026-05-06T00:44:29.000Z</time></trkpt>
        <trkpt lat="29.3533565" lon="105.2854633"><ele>345.01</ele><time>2026-05-06T00:44:49.000Z</time></trkpt>
        <trkpt lat="29.3533589" lon="105.2855461"><ele>345.52</ele><time>2026-05-06T00:45:05.000Z</time></trkpt>
        <trkpt lat="29.3533758" lon="105.285663"><ele>345.82</ele><time>2026-05-06T00:45:19.000Z</time></trkpt>
        <trkpt lat="29.3533857" lon="105.2857876"><ele>345.05</ele><time>2026-05-06T00:45:33.000Z</time></trkpt>
        <trkpt lat="29.3533907" lon="105.28583"><ele>344.47</ele><time>2026-05-06T00:45:35.000Z</time></trkpt>
        <trkpt lat="29.3533907" lon="105.28583"><ele>344.47</ele><time>2026-05-06T00:45:42.000Z</time></trkpt>
      </trkseg>
  </trk>
</gpx>